San Fernando, Spain
Current Conditions -  °F | °C
As of 11:00 AM on Friday 31 Oct 2014 (Local Time) from LERT Reporting Station
Clear Clear  
Wind Chill: 75°   Ceiling: Unl
Heat Index: 75°   Visibility: 6mi
Dew Point: 57°   Wind: 17mph
Humidity: 53%   Direction: 120°ESE
Pressure: 30.12"   Gusts: NA
Location:  36.48°N, 6.2°W
Report Text: LERT 311000Z 12015KT 080V150 CAVOK 24/14 Q1020 NOSIG
Loading
Personal Weather Stations






























Interactive Weather Map New forecast layout! Learn more

10-Day Weather Forecast

Advertisements
Track Severe Weather on mobile